BAW1PA EKCH-EGLL
Flight info
| Callsign | BAW1PA |
|---|---|
| Flight time | N/A |
| Altitude | 36000 |
| Route | LANGO DCT RAXLU DCT JUIST DCT ABNED L980 LOGAN |
| Aircraft | A320/M-SDE3FGHIRWY/LB1 |
Departure
| Time | 2026-04-26 20:32 |
|---|---|
| Airport | Copenhagen Kastrup Airport (EKCH) |
Arrival
| Time | N/A |
|---|---|
| Airport | London Heathrow Airport (EGLL) |
| Time | Latitude | Longitude | Altitude | Speed | Heading |
|---|---|---|---|---|---|
| 2026-04-26 20:07 | 55.62809 | 12.64223 | 17 ft | 0 kts | 124° |
| 2026-04-26 20:21 | 55.62809 | 12.64222 | 17 ft | 1 kts | 124° |
| 2026-04-26 20:21 | 55.62822 | 12.64187 | 19 ft | 4 kts | 119° |
| 2026-04-26 20:22 | 55.62836 | 12.64146 | 20 ft | 4 kts | 136° |
| 2026-04-26 20:22 | 55.62842 | 12.64126 | 21 ft | 4 kts | 229° |
| 2026-04-26 20:22 | 55.62842 | 12.64125 | 21 ft | 0 kts | 246° |
| 2026-04-26 20:24 | 55.62840 | 12.64117 | 17 ft | 2 kts | 246° |
| 2026-04-26 20:24 | 55.62832 | 12.64084 | 19 ft | 4 kts | 246° |
| 2026-04-26 20:24 | 55.62817 | 12.64028 | 17 ft | 6 kts | 242° |
| 2026-04-26 20:25 | 55.62782 | 12.63968 | 17 ft | 8 kts | 214° |
| 2026-04-26 20:25 | 55.62746 | 12.63926 | 17 ft | 10 kts | 213° |
| 2026-04-26 20:25 | 55.62652 | 12.63873 | 17 ft | 13 kts | 155° |
| 2026-04-26 20:25 | 55.62594 | 12.64006 | 17 ft | 15 kts | 123° |
| 2026-04-26 20:26 | 55.62533 | 12.64174 | 18 ft | 17 kts | 123° |
| 2026-04-26 20:26 | 55.62458 | 12.64360 | 17 ft | 20 kts | 128° |
| 2026-04-26 20:26 | 55.62374 | 12.64567 | 17 ft | 22 kts | 123° |
| 2026-04-26 20:26 | 55.62289 | 12.64801 | 18 ft | 23 kts | 123° |
| 2026-04-26 20:27 | 55.62199 | 12.65042 | 17 ft | 16 kts | 123° |
| 2026-04-26 20:27 | 55.62132 | 12.65094 | 17 ft | 13 kts | 208° |
| 2026-04-26 20:27 | 55.62052 | 12.65000 | 18 ft | 15 kts | 213° |
| 2026-04-26 20:27 | 55.61954 | 12.64889 | 17 ft | 19 kts | 213° |
| 2026-04-26 20:28 | 55.61839 | 12.64757 | 19 ft | 21 kts | 214° |
| 2026-04-26 20:28 | 55.61712 | 12.64610 | 17 ft | 23 kts | 213° |
| 2026-04-26 20:28 | 55.61572 | 12.64449 | 18 ft | 25 kts | 213° |
| 2026-04-26 20:28 | 55.61421 | 12.64276 | 19 ft | 27 kts | 213° |
| 2026-04-26 20:29 | 55.61259 | 12.64089 | 18 ft | 29 kts | 213° |
| 2026-04-26 20:29 | 55.61087 | 12.63892 | 17 ft | 30 kts | 213° |
| 2026-04-26 20:29 | 55.60906 | 12.63684 | 17 ft | 32 kts | 213° |
| 2026-04-26 20:29 | 55.60717 | 12.63467 | 20 ft | 33 kts | 213° |
| 2026-04-26 20:30 | 55.60552 | 12.63239 | 18 ft | 20 kts | 222° |
| 2026-04-26 20:30 | 55.60484 | 12.63134 | 17 ft | 12 kts | 216° |
| 2026-04-26 20:30 | 55.60401 | 12.63151 | 17 ft | 14 kts | 135° |
| 2026-04-26 20:30 | 55.60341 | 12.63296 | 22 ft | 15 kts | 107° |
| 2026-04-26 20:31 | 55.60405 | 12.63451 | 18 ft | 22 kts | 41° |
| 2026-04-26 20:31 | 55.60654 | 12.63839 | 19 ft | 80 kts | 41° |
| 2026-04-26 20:31 | 55.61223 | 12.64719 | 20 ft | 134 kts | 41° |
| 2026-04-26 20:31 | 55.62032 | 12.65980 | 102 ft | 167 kts | 43° |
| 2026-04-26 20:32 | 55.62888 | 12.67297 | 729 ft | 162 kts | 40° |
| 2026-04-26 20:32 | 55.63737 | 12.68619 | 1269 ft | 163 kts | 37° |
| 2026-04-26 20:32 | 55.64593 | 12.69950 | 1763 ft | 165 kts | 38° |
| 2026-04-26 20:32 | 55.65460 | 12.71283 | 2235 ft | 166 kts | 38° |
| 2026-04-26 20:33 | 55.66346 | 12.72600 | 2715 ft | 167 kts | 36° |
| 2026-04-26 20:33 | 55.67373 | 12.73447 | 3166 ft | 163 kts | 1° |
| 2026-04-26 20:33 | 55.68452 | 12.73123 | 3612 ft | 157 kts | 327° |
| 2026-04-26 20:33 | 55.69211 | 12.71797 | 4058 ft | 154 kts | 294° |
| 2026-04-26 20:34 | 55.69414 | 12.69979 | 4517 ft | 156 kts | 264° |
| 2026-04-26 20:34 | 55.69001 | 12.68195 | 4978 ft | 163 kts | 237° |
| 2026-04-26 20:34 | 55.68264 | 12.66459 | 5173 ft | 185 kts | 237° |
| 2026-04-26 20:34 | 55.67451 | 12.64554 | 5359 ft | 209 kts | 236° |
| 2026-04-26 20:35 | 55.66520 | 12.62377 | 5594 ft | 234 kts | 236° |
| 2026-04-26 20:35 | 55.65488 | 12.59972 | 5973 ft | 256 kts | 236° |
| 2026-04-26 20:35 | 55.64390 | 12.57418 | 6659 ft | 264 kts | 236° |
| 2026-04-26 20:35 | 55.63264 | 12.54806 | 7412 ft | 269 kts | 236° |
| 2026-04-26 20:36 | 55.62123 | 12.52159 | 8184 ft | 273 kts | 237° |
| 2026-04-26 20:36 | 55.60964 | 12.49468 | 8955 ft | 277 kts | 238° |
| 2026-04-26 20:36 | 55.59790 | 12.46731 | 9722 ft | 281 kts | 238° |
| 2026-04-26 20:36 | 55.58602 | 12.43962 | 10460 ft | 285 kts | 239° |
| 2026-04-26 20:37 | 55.57366 | 12.41079 | 10756 ft | 305 kts | 238° |
| 2026-04-26 20:37 | 55.56041 | 12.37978 | 10926 ft | 326 kts | 238° |
| 2026-04-26 20:37 | 55.54646 | 12.34737 | 11431 ft | 335 kts | 238° |
| 2026-04-26 20:37 | 55.53220 | 12.31447 | 12056 ft | 339 kts | 238° |
| 2026-04-26 20:38 | 55.51779 | 12.28142 | 12728 ft | 341 kts | 238° |
| 2026-04-26 20:38 | 55.50326 | 12.24809 | 13399 ft | 344 kts | 238° |
| 2026-04-26 20:38 | 55.48861 | 12.21443 | 14064 ft | 347 kts | 238° |
| 2026-04-26 20:38 | 55.47386 | 12.18047 | 14661 ft | 350 kts | 238° |
| 2026-04-26 20:39 | 55.45900 | 12.14627 | 15240 ft | 353 kts | 238° |
| 2026-04-26 20:39 | 55.44398 | 12.11178 | 15812 ft | 356 kts | 238° |
| 2026-04-26 20:39 | 55.42886 | 12.07709 | 16383 ft | 359 kts | 238° |
| 2026-04-26 20:39 | 55.41362 | 12.04216 | 16956 ft | 361 kts | 238° |
| 2026-04-26 20:40 | 55.39821 | 12.00694 | 17530 ft | 364 kts | 238° |
| 2026-04-26 20:40 | 55.38269 | 11.97151 | 18106 ft | 367 kts | 238° |
| 2026-04-26 20:40 | 55.36701 | 11.93582 | 18671 ft | 370 kts | 238° |
| 2026-04-26 20:40 | 55.35118 | 11.89985 | 19184 ft | 373 kts | 238° |
| 2026-04-26 20:41 | 55.33523 | 11.86366 | 19715 ft | 376 kts | 238° |
| 2026-04-26 20:41 | 55.31911 | 11.82714 | 20246 ft | 379 kts | 238° |
| 2026-04-26 20:41 | 55.30292 | 11.79047 | 20784 ft | 382 kts | 238° |
| 2026-04-26 20:41 | 55.28657 | 11.75349 | 21301 ft | 385 kts | 238° |
| 2026-04-26 20:42 | 55.27009 | 11.71624 | 21811 ft | 388 kts | 238° |
| 2026-04-26 20:42 | 55.25358 | 11.67871 | 22305 ft | 389 kts | 240° |
| 2026-04-26 20:42 | 55.23871 | 11.63920 | 22783 ft | 390 kts | 243° |
| 2026-04-26 20:42 | 55.22398 | 11.59916 | 23211 ft | 393 kts | 242° |
| 2026-04-26 20:43 | 55.20911 | 11.55881 | 23679 ft | 396 kts | 242° |
| 2026-04-26 20:43 | 55.19413 | 11.51826 | 24095 ft | 398 kts | 242° |
| 2026-04-26 20:43 | 55.17904 | 11.47745 | 24496 ft | 400 kts | 242° |
| 2026-04-26 20:43 | 55.16380 | 11.43658 | 24905 ft | 402 kts | 242° |
| 2026-04-26 20:44 | 55.14845 | 11.39567 | 25309 ft | 403 kts | 242° |
| 2026-04-26 20:44 | 55.13101 | 11.35710 | 25505 ft | 407 kts | 229° |
| 2026-04-26 20:44 | 55.10791 | 11.32814 | 25049 ft | 415 kts | 210° |
| 2026-04-26 20:44 | 55.08006 | 11.31357 | 24554 ft | 424 kts | 191° |
| 2026-04-26 20:45 | 55.05047 | 11.31502 | 24073 ft | 431 kts | 171° |
| 2026-04-26 20:45 | 55.02225 | 11.33265 | 23575 ft | 434 kts | 152° |
| 2026-04-26 20:45 | 54.99851 | 11.36488 | 23150 ft | 432 kts | 133° |
| 2026-04-26 20:45 | 54.98111 | 11.40638 | 22986 ft | 419 kts | 116° |
| 2026-04-26 20:46 | 54.97079 | 11.45278 | 22808 ft | 405 kts | 100° |
| 2026-04-26 20:46 | 54.96791 | 11.50059 | 22450 ft | 393 kts | 83° |
| 2026-04-26 20:46 | 54.97238 | 11.54658 | 22043 ft | 381 kts | 66° |
| 2026-04-26 20:46 | 54.98316 | 11.58785 | 21599 ft | 369 kts | 51° |
| 2026-04-26 20:47 | 54.99886 | 11.62225 | 21135 ft | 358 kts | 38° |
| 2026-04-26 20:47 | 55.01065 | 11.64220 | 20835 ft | 357 kts | 38° |
| 2026-04-26 20:47 | 55.03439 | 11.68240 | 20251 ft | 354 kts | 38° |
| 2026-04-26 20:47 | 55.05197 | 11.71228 | 19818 ft | 352 kts | 38° |
| 2026-04-26 20:48 | 55.06943 | 11.74207 | 19419 ft | 350 kts | 38° |
| 2026-04-26 20:48 | 55.08677 | 11.77176 | 19010 ft | 348 kts | 38° |
| 2026-04-26 20:48 | 55.10398 | 11.80127 | 18613 ft | 346 kts | 38° |
| 2026-04-26 20:48 | 55.12110 | 11.83069 | 18167 ft | 344 kts | 38° |
| 2026-04-26 20:49 | 55.13811 | 11.85995 | 17729 ft | 342 kts | 38° |
| 2026-04-26 20:49 | 55.15499 | 11.88899 | 17298 ft | 340 kts | 38° |
| 2026-04-26 20:49 | 55.17181 | 11.91787 | 16872 ft | 337 kts | 38° |
| 2026-04-26 20:49 | 55.18841 | 11.94641 | 16628 ft | 330 kts | 38° |
| 2026-04-26 20:50 | 55.20450 | 11.97420 | 16506 ft | 320 kts | 38° |
| 2026-04-26 20:50 | 55.22019 | 12.00134 | 16240 ft | 315 kts | 38° |
| 2026-04-26 20:50 | 55.23571 | 12.02815 | 15908 ft | 312 kts | 38° |
| 2026-04-26 20:50 | 55.25113 | 12.05481 | 15560 ft | 310 kts | 38° |
| 2026-04-26 20:51 | 55.26646 | 12.08133 | 15224 ft | 309 kts | 38° |
| 2026-04-26 20:51 | 55.28173 | 12.10768 | 14885 ft | 307 kts | 38° |
| 2026-04-26 20:51 | 55.29689 | 12.13393 | 14546 ft | 306 kts | 38° |
| 2026-04-26 20:51 | 55.31199 | 12.16016 | 14217 ft | 304 kts | 38° |
| 2026-04-26 20:52 | 55.32698 | 12.18624 | 13863 ft | 303 kts | 38° |
| 2026-04-26 20:52 | 55.34196 | 12.21232 | 13386 ft | 304 kts | 38° |
| 2026-04-26 20:52 | 55.35671 | 12.23803 | 12735 ft | 301 kts | 38° |
| 2026-04-26 20:52 | 55.37175 | 12.26421 | 11680 ft | 311 kts | 38° |
| 2026-04-26 20:53 | 55.38745 | 12.29149 | 10447 ft | 324 kts | 39° |
| 2026-04-26 20:53 | 55.40319 | 12.32101 | 8992 ft | 338 kts | 46° |
| 2026-04-26 20:53 | 55.41925 | 12.35190 | 7449 ft | 346 kts | 40° |
| 2026-04-26 20:53 | 55.43764 | 12.37994 | 5899 ft | 353 kts | 37° |
| 2026-04-26 20:54 | 55.45647 | 12.40751 | 4769 ft | 347 kts | 38° |
| 2026-04-26 20:54 | 55.47417 | 12.43458 | 4129 ft | 328 kts | 39° |
| 2026-04-26 20:54 | 55.49100 | 12.46056 | 3490 ft | 315 kts | 38° |
| 2026-04-26 20:54 | 55.50726 | 12.48551 | 2716 ft | 308 kts | 38° |
| 2026-04-26 20:55 | 55.52312 | 12.50984 | 2194 ft | 295 kts | 38° |
| 2026-04-26 20:55 | 55.53826 | 12.53312 | 1781 ft | 282 kts | 38° |
| 2026-04-26 20:55 | 55.55277 | 12.55544 | 1420 ft | 274 kts | 38° |
| 2026-04-26 20:55 | 55.56685 | 12.57713 | 1036 ft | 259 kts | 39° |
| 2026-04-26 20:56 | 55.57902 | 12.59594 | 693 ft | 208 kts | 40° |
| 2026-04-26 20:56 | 55.58902 | 12.61133 | 431 ft | 176 kts | 41° |
| 2026-04-26 20:56 | 55.59848 | 12.62583 | 824 ft | 185 kts | 40° |
| 2026-04-26 20:56 | 55.60753 | 12.64250 | 1590 ft | 200 kts | 56° |
| 2026-04-26 20:57 | 55.61116 | 12.66728 | 1906 ft | 223 kts | 93° |
| 2026-04-26 20:57 | 55.60585 | 12.69354 | 2365 ft | 233 kts | 130° |
| 2026-04-26 20:57 | 55.59322 | 12.71055 | 3094 ft | 230 kts | 164° |
| 2026-04-26 20:57 | 55.57761 | 12.71306 | 3773 ft | 229 kts | 195° |
| 2026-04-26 20:58 | 55.56283 | 12.70088 | 3971 ft | 251 kts | 220° |
| 2026-04-26 20:58 | 55.54853 | 12.67949 | 4012 ft | 288 kts | 225° |
| 2026-04-26 20:58 | 55.53288 | 12.65404 | 4013 ft | 322 kts | 225° |
| 2026-04-26 20:58 | 55.51607 | 12.62626 | 4009 ft | 336 kts | 225° |
| 2026-04-26 20:59 | 55.49896 | 12.59788 | 4010 ft | 339 kts | 225° |
| 2026-04-26 20:59 | 55.48172 | 12.56937 | 4012 ft | 340 kts | 225° |
| 2026-04-26 20:59 | 55.46452 | 12.54092 | 4006 ft | 336 kts | 225° |
| 2026-04-26 20:59 | 55.44803 | 12.51372 | 4000 ft | 314 kts | 226° |
| 2026-04-26 21:00 | 55.43550 | 12.48435 | 3997 ft | 289 kts | 249° |
| 2026-04-26 21:00 | 55.43180 | 12.45192 | 4009 ft | 256 kts | 275° |
| 2026-04-26 21:00 | 55.43686 | 12.42399 | 3927 ft | 235 kts | 308° |
| 2026-04-26 21:00 | 55.44992 | 12.40888 | 3861 ft | 225 kts | 347° |
| 2026-04-26 21:01 | 55.46492 | 12.41269 | 3705 ft | 222 kts | 28° |
| 2026-04-26 21:01 | 55.47543 | 12.43245 | 3478 ft | 224 kts | 54° |
| 2026-04-26 21:01 | 55.48541 | 12.45302 | 3165 ft | 219 kts | 38° |
| 2026-04-26 21:01 | 55.49705 | 12.47032 | 2866 ft | 219 kts | 37° |
| 2026-04-26 21:02 | 55.50857 | 12.48759 | 2600 ft | 215 kts | 37° |
| 2026-04-26 21:02 | 55.51977 | 12.50471 | 2269 ft | 208 kts | 37° |
| 2026-04-26 21:02 | 55.53036 | 12.52100 | 1974 ft | 196 kts | 37° |
| 2026-04-26 21:02 | 55.54034 | 12.53635 | 1720 ft | 185 kts | 37° |
| 2026-04-26 21:03 | 55.54970 | 12.55076 | 1481 ft | 171 kts | 37° |
| 2026-04-26 21:03 | 55.55832 | 12.56402 | 1253 ft | 161 kts | 37° |
| 2026-04-26 21:03 | 55.56654 | 12.57666 | 1036 ft | 157 kts | 36° |
| 2026-04-26 21:03 | 55.57209 | 12.58520 | 887 ft | 155 kts | 39° |
| 2026-04-26 21:04 | 55.58278 | 12.60159 | 640 ft | 151 kts | 40° |
| 2026-04-26 21:04 | 55.58807 | 12.60981 | 486 ft | 149 kts | 42° |
| 2026-04-26 21:04 | 55.59570 | 12.62160 | 280 ft | 144 kts | 43° |
| 2026-04-26 21:04 | 55.60318 | 12.63308 | 65 ft | 141 kts | 43° |
| 2026-04-26 21:05 | 55.61019 | 12.64413 | 18 ft | 125 kts | 43° |
| 2026-04-26 21:05 | 55.62065 | 12.66065 | 208 ft | 178 kts | 34° |
| 2026-04-26 21:05 | 55.62757 | 12.67074 | 427 ft | 201 kts | 41° |
| 2026-04-26 21:05 | 55.63359 | 12.69093 | 1263 ft | 208 kts | 107° |
| 2026-04-26 21:06 | 55.62271 | 12.70906 | 1153 ft | 243 kts | 185° |
| 2026-04-26 21:06 | 55.60819 | 12.69771 | 2008 ft | 248 kts | 213° |
| 2026-04-26 21:06 | 55.59165 | 12.68094 | 2267 ft | 290 kts | 216° |
| 2026-04-26 21:06 | 55.57435 | 12.66030 | 2521 ft | 316 kts | 217° |
| 2026-04-26 21:07 | 55.55582 | 12.63754 | 2785 ft | 330 kts | 217° |
| 2026-04-26 21:07 | 55.53685 | 12.61413 | 2957 ft | 334 kts | 217° |
| 2026-04-26 21:07 | 55.51781 | 12.59058 | 3003 ft | 334 kts | 217° |
| 2026-04-26 21:07 | 55.49850 | 12.56672 | 3006 ft | 335 kts | 217° |
| 2026-04-26 21:08 | 55.47962 | 12.54348 | 3010 ft | 335 kts | 217° |
| 2026-04-26 21:08 | 55.46054 | 12.52001 | 3007 ft | 331 kts | 217° |
| 2026-04-26 21:08 | 55.44310 | 12.49528 | 3007 ft | 305 kts | 231° |
| 2026-04-26 21:08 | 55.43339 | 12.46462 | 3007 ft | 282 kts | 257° |